sensor_id;sensor_type;location;lat;lon;timestamp;P1;durP1;ratioP1;P2;durP2;ratioP2
2474;SDS011;1248;48.694;10.160;2024-03-22T00:02:09;16.53;;;6.37;;
2474;SDS011;1248;48.694;10.160;2024-03-22T00:04:35;8.40;;;6.77;;
2474;SDS011;1248;48.694;10.160;2024-03-22T00:07:04;9.67;;;7.40;;
2474;SDS011;1248;48.694;10.160;2024-03-22T00:09:30;9.43;;;7.30;;
2474;SDS011;1248;48.694;10.160;2024-03-22T00:11:57;8.77;;;7.00;;
2474;SDS011;1248;48.694;10.160;2024-03-22T00:14:23;9.43;;;5.83;;
2474;SDS011;1248;48.694;10.160;2024-03-22T00:16:50;9.30;;;6.77;;
2474;SDS011;1248;48.694;10.160;2024-03-22T00:19:16;7.73;;;7.03;;
2474;SDS011;1248;48.694;10.160;2024-03-22T00:21:44;7.70;;;6.10;;
2474;SDS011;1248;48.694;10.160;2024-03-22T00:24:11;9.03;;;6.50;;
2474;SDS011;1248;48.694;10.160;2024-03-22T00:26:38;14.30;;;6.37;;
2474;SDS011;1248;48.694;10.160;2024-03-22T00:29:04;8.90;;;5.70;;
2474;SDS011;1248;48.694;10.160;2024-03-22T00:31:31;8.73;;;6.60;;
2474;SDS011;1248;48.694;10.160;2024-03-22T00:33:58;8.90;;;7.30;;
2474;SDS011;1248;48.694;10.160;2024-03-22T00:36:25;7.77;;;6.13;;
2474;SDS011;1248;48.694;10.160;2024-03-22T00:38:51;9.37;;;5.60;;
2474;SDS011;1248;48.694;10.160;2024-03-22T00:41:19;11.00;;;6.57;;
2474;SDS011;1248;48.694;10.160;2024-03-22T00:43:45;8.23;;;6.27;;
2474;SDS011;1248;48.694;10.160;2024-03-22T00:46:12;8.23;;;7.27;;
2474;SDS011;1248;48.694;10.160;2024-03-22T00:48:38;8.67;;;5.87;;
2474;SDS011;1248;48.694;10.160;2024-03-22T00:51:05;12.50;;;7.47;;
2474;SDS011;1248;48.694;10.160;2024-03-22T00:53:31;12.47;;;6.40;;
2474;SDS011;1248;48.694;10.160;2024-03-22T00:55:58;12.53;;;6.37;;
2474;SDS011;1248;48.694;10.160;2024-03-22T00:58:27;7.47;;;5.93;;
2474;SDS011;1248;48.694;10.160;2024-03-22T01:00:54;10.80;;;7.77;;
2474;SDS011;1248;48.694;10.160;2024-03-22T01:03:20;8.40;;;6.60;;
2474;SDS011;1248;48.694;10.160;2024-03-22T01:05:47;10.23;;;7.23;;
2474;SDS011;1248;48.694;10.160;2024-03-22T01:08:13;11.20;;;7.17;;
2474;SDS011;1248;48.694;10.160;2024-03-22T01:10:41;9.33;;;6.47;;
2474;SDS011;1248;48.694;10.160;2024-03-22T01:13:07;12.17;;;8.90;;
2474;SDS011;1248;48.694;10.160;2024-03-22T01:15:35;10.40;;;8.20;;
2474;SDS011;1248;48.694;10.160;2024-03-22T01:18:02;12.77;;;8.73;;
2474;SDS011;1248;48.694;10.160;2024-03-22T01:20:29;8.03;;;6.03;;
2474;SDS011;1248;48.694;10.160;2024-03-22T01:22:55;11.07;;;7.13;;
2474;SDS011;1248;48.694;10.160;2024-03-22T01:25:22;12.43;;;7.30;;
2474;SDS011;1248;48.694;10.160;2024-03-22T01:27:48;8.07;;;6.90;;
2474;SDS011;1248;48.694;10.160;2024-03-22T01:30:15;12.70;;;8.00;;
2474;SDS011;1248;48.694;10.160;2024-03-22T01:32:43;9.00;;;6.93;;
2474;SDS011;1248;48.694;10.160;2024-03-22T01:35:10;9.10;;;7.63;;
2474;SDS011;1248;48.694;10.160;2024-03-22T01:37:36;12.60;;;7.20;;
2474;SDS011;1248;48.694;10.160;2024-03-22T01:40:03;11.70;;;8.70;;
2474;SDS011;1248;48.694;10.160;2024-03-22T01:42:30;11.03;;;8.00;;
2474;SDS011;1248;48.694;10.160;2024-03-22T01:44:57;10.77;;;8.10;;
2474;SDS011;1248;48.694;10.160;2024-03-22T01:47:23;10.00;;;7.90;;
2474;SDS011;1248;48.694;10.160;2024-03-22T01:49:53;13.40;;;7.40;;
2474;SDS011;1248;48.694;10.160;2024-03-22T01:52:20;12.00;;;7.77;;
2474;SDS011;1248;48.694;10.160;2024-03-22T01:54:48;10.73;;;8.90;;
2474;SDS011;1248;48.694;10.160;2024-03-22T01:57:14;12.67;;;8.17;;
2474;SDS011;1248;48.694;10.160;2024-03-22T01:59:41;10.43;;;7.53;;
2474;SDS011;1248;48.694;10.160;2024-03-22T02:02:07;11.30;;;8.97;;
2474;SDS011;1248;48.694;10.160;2024-03-22T02:04:36;12.83;;;8.27;;
2474;SDS011;1248;48.694;10.160;2024-03-22T02:07:04;9.87;;;7.30;;
2474;SDS011;1248;48.694;10.160;2024-03-22T02:09:31;14.23;;;7.60;;
2474;SDS011;1248;48.694;10.160;2024-03-22T02:11:57;9.10;;;7.20;;
2474;SDS011;1248;48.694;10.160;2024-03-22T02:14:24;11.77;;;7.50;;
2474;SDS011;1248;48.694;10.160;2024-03-22T02:16:51;10.70;;;7.60;;
2474;SDS011;1248;48.694;10.160;2024-03-22T02:19:18;10.40;;;6.30;;
2474;SDS011;1248;48.694;10.160;2024-03-22T02:21:44;9.50;;;6.83;;
2474;SDS011;1248;48.694;10.160;2024-03-22T02:24:12;11.37;;;9.40;;
2474;SDS011;1248;48.694;10.160;2024-03-22T02:26:39;13.57;;;7.60;;
2474;SDS011;1248;48.694;10.160;2024-03-22T02:29:06;8.83;;;7.10;;
2474;SDS011;1248;48.694;10.160;2024-03-22T02:31:32;10.60;;;8.03;;
2474;SDS011;1248;48.694;10.160;2024-03-22T02:33:59;10.00;;;7.50;;
2474;SDS011;1248;48.694;10.160;2024-03-22T02:36:26;10.40;;;7.63;;
2474;SDS011;1248;48.694;10.160;2024-03-22T02:38:53;9.67;;;7.60;;
2474;SDS011;1248;48.694;10.160;2024-03-22T02:41:21;8.87;;;7.57;;
2474;SDS011;1248;48.694;10.160;2024-03-22T02:43:48;16.73;;;9.27;;
2474;SDS011;1248;48.694;10.160;2024-03-22T02:46:14;10.57;;;8.60;;
2474;SDS011;1248;48.694;10.160;2024-03-22T02:48:41;9.03;;;8.10;;
2474;SDS011;1248;48.694;10.160;2024-03-22T02:51:07;8.73;;;7.30;;
2474;SDS011;1248;48.694;10.160;2024-03-22T02:53:34;8.63;;;6.90;;
2474;SDS011;1248;48.694;10.160;2024-03-22T02:56:00;12.40;;;7.87;;
2474;SDS011;1248;48.694;10.160;2024-03-22T02:58:28;9.73;;;7.87;;
2474;SDS011;1248;48.694;10.160;2024-03-22T03:00:55;20.33;;;8.07;;
2474;SDS011;1248;48.694;10.160;2024-03-22T03:03:22;11.90;;;7.73;;
2474;SDS011;1248;48.694;10.160;2024-03-22T03:05:48;12.63;;;9.50;;
2474;SDS011;1248;48.694;10.160;2024-03-22T03:08:15;9.93;;;6.93;;
2474;SDS011;1248;48.694;10.160;2024-03-22T03:10:41;10.37;;;8.00;;
2474;SDS011;1248;48.694;10.160;2024-03-22T03:13:08;12.23;;;8.67;;
2474;SDS011;1248;48.694;10.160;2024-03-22T03:15:35;16.57;;;7.37;;
2474;SDS011;1248;48.694;10.160;2024-03-22T03:18:03;11.20;;;8.47;;
2474;SDS011;1248;48.694;10.160;2024-03-22T03:20:29;10.43;;;8.33;;
2474;SDS011;1248;48.694;10.160;2024-03-22T03:22:56;10.47;;;8.17;;
2474;SDS011;1248;48.694;10.160;2024-03-22T03:25:25;12.10;;;8.20;;
2474;SDS011;1248;48.694;10.160;2024-03-22T03:27:52;11.47;;;8.33;;
2474;SDS011;1248;48.694;10.160;2024-03-22T03:30:18;11.30;;;8.80;;
2474;SDS011;1248;48.694;10.160;2024-03-22T03:32:46;13.30;;;7.50;;
2474;SDS011;1248;48.694;10.160;2024-03-22T03:35:13;10.77;;;8.30;;
2474;SDS011;1248;48.694;10.160;2024-03-22T03:37:40;10.50;;;8.80;;
2474;SDS011;1248;48.694;10.160;2024-03-22T03:40:06;11.13;;;7.80;;
2474;SDS011;1248;48.694;10.160;2024-03-22T03:42:34;9.77;;;8.03;;
2474;SDS011;1248;48.694;10.160;2024-03-22T03:45:00;8.80;;;7.20;;
2474;SDS011;1248;48.694;10.160;2024-03-22T03:47:28;11.10;;;8.13;;
2474;SDS011;1248;48.694;10.160;2024-03-22T03:49:55;12.30;;;9.03;;
2474;SDS011;1248;48.694;10.160;2024-03-22T03:52:22;13.13;;;8.67;;
2474;SDS011;1248;48.694;10.160;2024-03-22T03:54:48;12.37;;;8.17;;
2474;SDS011;1248;48.694;10.160;2024-03-22T03:57:15;10.97;;;9.13;;
2474;SDS011;1248;48.694;10.160;2024-03-22T03:59:41;12.90;;;8.80;;
2474;SDS011;1248;48.694;10.160;2024-03-22T04:02:08;13.17;;;8.03;;
2474;SDS011;1248;48.694;10.160;2024-03-22T04:04:34;10.70;;;8.00;;
2474;SDS011;1248;48.694;10.160;2024-03-22T04:07:03;16.90;;;7.97;;
2474;SDS011;1248;48.694;10.160;2024-03-22T04:09:29;11.47;;;8.20;;
2474;SDS011;1248;48.694;10.160;2024-03-22T04:11:57;16.57;;;8.80;;
2474;SDS011;1248;48.694;10.160;2024-03-22T04:14:24;13.67;;;8.50;;
2474;SDS011;1248;48.694;10.160;2024-03-22T04:16:51;10.90;;;8.77;;
2474;SDS011;1248;48.694;10.160;2024-03-22T04:19:20;13.23;;;8.80;;
2474;SDS011;1248;48.694;10.160;2024-03-22T04:21:47;16.00;;;10.00;;
2474;SDS011;1248;48.694;10.160;2024-03-22T04:24:16;14.80;;;9.20;;
2474;SDS011;1248;48.694;10.160;2024-03-22T04:26:43;13.50;;;9.93;;
2474;SDS011;1248;48.694;10.160;2024-03-22T04:29:09;11.77;;;9.13;;
2474;SDS011;1248;48.694;10.160;2024-03-22T04:31:36;13.10;;;8.90;;
2474;SDS011;1248;48.694;10.160;2024-03-22T04:34:02;12.60;;;8.83;;
2474;SDS011;1248;48.694;10.160;2024-03-22T04:36:31;12.67;;;8.63;;
2474;SDS011;1248;48.694;10.160;2024-03-22T04:38:57;11.77;;;8.87;;
2474;SDS011;1248;48.694;10.160;2024-03-22T04:41:25;14.53;;;8.40;;
2474;SDS011;1248;48.694;10.160;2024-03-22T04:43:52;12.50;;;9.13;;
2474;SDS011;1248;48.694;10.160;2024-03-22T04:46:19;13.27;;;8.00;;
2474;SDS011;1248;48.694;10.160;2024-03-22T04:48:46;15.17;;;8.90;;
2474;SDS011;1248;48.694;10.160;2024-03-22T04:51:12;16.87;;;9.50;;
2474;SDS011;1248;48.694;10.160;2024-03-22T04:53:39;13.83;;;9.10;;
2474;SDS011;1248;48.694;10.160;2024-03-22T04:56:05;11.03;;;8.90;;
2474;SDS011;1248;48.694;10.160;2024-03-22T04:58:36;16.83;;;9.60;;
2474;SDS011;1248;48.694;10.160;2024-03-22T05:01:02;17.73;;;9.20;;
2474;SDS011;1248;48.694;10.160;2024-03-22T05:03:29;11.43;;;8.57;;
2474;SDS011;1248;48.694;10.160;2024-03-22T05:05:56;15.00;;;9.00;;
2474;SDS011;1248;48.694;10.160;2024-03-22T05:08:23;13.80;;;9.40;;
2474;SDS011;1248;48.694;10.160;2024-03-22T05:10:49;16.50;;;9.57;;
2474;SDS011;1248;48.694;10.160;2024-03-22T05:13:16;14.43;;;8.90;;
2474;SDS011;1248;48.694;10.160;2024-03-22T05:15:44;14.50;;;9.73;;
2474;SDS011;1248;48.694;10.160;2024-03-22T05:18:11;16.30;;;9.10;;
2474;SDS011;1248;48.694;10.160;2024-03-22T05:20:37;16.10;;;9.30;;
2474;SDS011;1248;48.694;10.160;2024-03-22T05:23:04;15.77;;;9.13;;
2474;SDS011;1248;48.694;10.160;2024-03-22T05:25:30;19.57;;;9.17;;
2474;SDS011;1248;48.694;10.160;2024-03-22T05:27:57;13.80;;;8.70;;
2474;SDS011;1248;48.694;10.160;2024-03-22T05:30:23;15.43;;;9.73;;
2474;SDS011;1248;48.694;10.160;2024-03-22T05:32:51;13.73;;;9.70;;
2474;SDS011;1248;48.694;10.160;2024-03-22T05:35:18;10.17;;;8.10;;
2474;SDS011;1248;48.694;10.160;2024-03-22T05:37:45;13.00;;;9.50;;
2474;SDS011;1248;48.694;10.160;2024-03-22T05:40:11;12.57;;;8.83;;
2474;SDS011;1248;48.694;10.160;2024-03-22T05:42:39;17.00;;;9.10;;
2474;SDS011;1248;48.694;10.160;2024-03-22T05:45:05;19.20;;;9.73;;
2474;SDS011;1248;48.694;10.160;2024-03-22T05:47:32;16.90;;;9.30;;
2474;SDS011;1248;48.694;10.160;2024-03-22T05:50:00;15.80;;;11.60;;
2474;SDS011;1248;48.694;10.160;2024-03-22T05:52:27;19.80;;;11.60;;
2474;SDS011;1248;48.694;10.160;2024-03-22T05:54:54;13.57;;;10.27;;
2474;SDS011;1248;48.694;10.160;2024-03-22T05:57:21;15.53;;;9.97;;
2474;SDS011;1248;48.694;10.160;2024-03-22T05:59:47;17.67;;;12.30;;
2474;SDS011;1248;48.694;10.160;2024-03-22T06:02:14;18.80;;;11.07;;
2474;SDS011;1248;48.694;10.160;2024-03-22T06:04:40;13.27;;;9.97;;
2474;SDS011;1248;48.694;10.160;2024-03-22T06:07:09;18.23;;;10.00;;
2474;SDS011;1248;48.694;10.160;2024-03-22T06:09:35;18.30;;;10.53;;
2474;SDS011;1248;48.694;10.160;2024-03-22T06:12:11;14.20;;;10.77;;
2474;SDS011;1248;48.694;10.160;2024-03-22T06:14:39;23.70;;;11.00;;
2474;SDS011;1248;48.694;10.160;2024-03-22T06:17:05;26.10;;;11.73;;
2474;SDS011;1248;48.694;10.160;2024-03-22T06:19:32;20.00;;;13.70;;
2474;SDS011;1248;48.694;10.160;2024-03-22T06:21:58;22.87;;;11.10;;
2474;SDS011;1248;48.694;10.160;2024-03-22T06:24:26;16.87;;;11.27;;
2474;SDS011;1248;48.694;10.160;2024-03-22T06:26:53;18.40;;;11.77;;
2474;SDS011;1248;48.694;10.160;2024-03-22T06:29:20;34.33;;;16.77;;
2474;SDS011;1248;48.694;10.160;2024-03-22T06:31:46;25.10;;;15.57;;
2474;SDS011;1248;48.694;10.160;2024-03-22T06:34:13;28.10;;;13.83;;
2474;SDS011;1248;48.694;10.160;2024-03-22T06:36:39;19.17;;;11.90;;
2474;SDS011;1248;48.694;10.160;2024-03-22T06:39:06;28.30;;;13.40;;
2474;SDS011;1248;48.694;10.160;2024-03-22T06:41:35;26.37;;;13.40;;
2474;SDS011;1248;48.694;10.160;2024-03-22T06:44:03;24.70;;;13.67;;
2474;SDS011;1248;48.694;10.160;2024-03-22T06:46:29;20.03;;;13.43;;
2474;SDS011;1248;48.694;10.160;2024-03-22T06:48:57;18.07;;;11.83;;
2474;SDS011;1248;48.694;10.160;2024-03-22T06:51:23;17.03;;;11.70;;
2474;SDS011;1248;48.694;10.160;2024-03-22T06:53:50;17.07;;;11.37;;
2474;SDS011;1248;48.694;10.160;2024-03-22T06:56:17;13.33;;;10.80;;
2474;SDS011;1248;48.694;10.160;2024-03-22T06:58:46;14.80;;;10.50;;
2474;SDS011;1248;48.694;10.160;2024-03-22T07:01:13;19.00;;;11.37;;
2474;SDS011;1248;48.694;10.160;2024-03-22T07:03:39;19.27;;;12.40;;
2474;SDS011;1248;48.694;10.160;2024-03-22T07:06:06;25.13;;;12.67;;
2474;SDS011;1248;48.694;10.160;2024-03-22T07:08:34;17.87;;;12.20;;
2474;SDS011;1248;48.694;10.160;2024-03-22T07:11:04;20.13;;;12.07;;
2474;SDS011;1248;48.694;10.160;2024-03-22T07:13:30;15.80;;;10.60;;
2474;SDS011;1248;48.694;10.160;2024-03-22T07:15:59;15.40;;;10.83;;
2474;SDS011;1248;48.694;10.160;2024-03-22T07:18:25;22.90;;;12.60;;
2474;SDS011;1248;48.694;10.160;2024-03-22T07:20:52;24.90;;;11.57;;
2474;SDS011;1248;48.694;10.160;2024-03-22T07:23:19;16.53;;;10.93;;
2474;SDS011;1248;48.694;10.160;2024-03-22T07:25:46;17.53;;;10.10;;
2474;SDS011;1248;48.694;10.160;2024-03-22T07:28:14;22.10;;;12.50;;
2474;SDS011;1248;48.694;10.160;2024-03-22T07:30:41;21.20;;;11.20;;
2474;SDS011;1248;48.694;10.160;2024-03-22T07:33:09;18.40;;;12.13;;
2474;SDS011;1248;48.694;10.160;2024-03-22T07:35:38;18.93;;;12.07;;
2474;SDS011;1248;48.694;10.160;2024-03-22T07:38:05;17.80;;;10.00;;
2474;SDS011;1248;48.694;10.160;2024-03-22T07:40:32;26.70;;;11.10;;
2474;SDS011;1248;48.694;10.160;2024-03-22T07:42:58;19.70;;;11.60;;
2474;SDS011;1248;48.694;10.160;2024-03-22T07:45:31;21.17;;;13.60;;
2474;SDS011;1248;48.694;10.160;2024-03-22T07:47:57;21.77;;;13.23;;
2474;SDS011;1248;48.694;10.160;2024-03-22T07:50:26;20.90;;;12.13;;
2474;SDS011;1248;48.694;10.160;2024-03-22T07:52:52;24.33;;;13.90;;
2474;SDS011;1248;48.694;10.160;2024-03-22T07:55:19;22.67;;;12.87;;
2474;SDS011;1248;48.694;10.160;2024-03-22T07:57:45;22.83;;;11.67;;
2474;SDS011;1248;48.694;10.160;2024-03-22T08:00:13;24.03;;;13.73;;
2474;SDS011;1248;48.694;10.160;2024-03-22T08:02:39;21.17;;;13.30;;
2474;SDS011;1248;48.694;10.160;2024-03-22T08:05:08;26.10;;;13.70;;
2474;SDS011;1248;48.694;10.160;2024-03-22T08:07:36;20.90;;;12.53;;
2474;SDS011;1248;48.694;10.160;2024-03-22T08:10:03;17.43;;;12.37;;
2474;SDS011;1248;48.694;10.160;2024-03-22T08:12:30;19.67;;;12.57;;
2474;SDS011;1248;48.694;10.160;2024-03-22T08:14:57;18.40;;;12.60;;
2474;SDS011;1248;48.694;10.160;2024-03-22T08:17:23;22.03;;;13.43;;
2474;SDS011;1248;48.694;10.160;2024-03-22T08:19:50;21.47;;;12.67;;
2474;SDS011;1248;48.694;10.160;2024-03-22T08:22:16;16.53;;;10.60;;
2474;SDS011;1248;48.694;10.160;2024-03-22T08:24:44;21.40;;;12.27;;
2474;SDS011;1248;48.694;10.160;2024-03-22T08:27:10;12.77;;;9.57;;
2474;SDS011;1248;48.694;10.160;2024-03-22T08:29:37;18.77;;;10.70;;
2474;SDS011;1248;48.694;10.160;2024-03-22T08:32:06;14.00;;;9.03;;
2474;SDS011;1248;48.694;10.160;2024-03-22T08:34:33;19.03;;;9.43;;
2474;SDS011;1248;48.694;10.160;2024-03-22T08:36:59;13.60;;;8.60;;
2474;SDS011;1248;48.694;10.160;2024-03-22T08:39:26;12.37;;;8.87;;
2474;SDS011;1248;48.694;10.160;2024-03-22T08:41:53;10.40;;;7.87;;
2474;SDS011;1248;48.694;10.160;2024-03-22T08:44:21;14.47;;;10.00;;
2474;SDS011;1248;48.694;10.160;2024-03-22T08:46:47;13.70;;;9.47;;
2474;SDS011;1248;48.694;10.160;2024-03-22T08:49:15;11.80;;;7.97;;
2474;SDS011;1248;48.694;10.160;2024-03-22T08:51:41;15.63;;;9.40;;
2474;SDS011;1248;48.694;10.160;2024-03-22T08:54:08;14.50;;;8.90;;
2474;SDS011;1248;48.694;10.160;2024-03-22T08:56:34;15.30;;;8.80;;
2474;SDS011;1248;48.694;10.160;2024-03-22T08:59:03;12.60;;;9.00;;
2474;SDS011;1248;48.694;10.160;2024-03-22T09:01:29;13.13;;;9.20;;
2474;SDS011;1248;48.694;10.160;2024-03-22T09:03:56;11.17;;;8.77;;
2474;SDS011;1248;48.694;10.160;2024-03-22T09:06:22;12.53;;;8.73;;
2474;SDS011;1248;48.694;10.160;2024-03-22T09:08:49;16.90;;;9.90;;
2474;SDS011;1248;48.694;10.160;2024-03-22T09:11:15;14.00;;;7.80;;
2474;SDS011;1248;48.694;10.160;2024-03-22T09:13:43;12.07;;;7.70;;
2474;SDS011;1248;48.694;10.160;2024-03-22T09:16:16;13.63;;;8.87;;
2474;SDS011;1248;48.694;10.160;2024-03-22T09:18:43;12.33;;;8.43;;
2474;SDS011;1248;48.694;10.160;2024-03-22T09:21:09;10.30;;;7.37;;
2474;SDS011;1248;48.694;10.160;2024-03-22T09:23:37;12.90;;;8.33;;
2474;SDS011;1248;48.694;10.160;2024-03-22T09:26:03;12.77;;;7.13;;
2474;SDS011;1248;48.694;10.160;2024-03-22T09:28:31;14.20;;;7.00;;
2474;SDS011;1248;48.694;10.160;2024-03-22T09:30:57;10.77;;;7.30;;
2474;SDS011;1248;48.694;10.160;2024-03-22T09:33:25;15.60;;;8.23;;
2474;SDS011;1248;48.694;10.160;2024-03-22T09:35:51;11.80;;;8.13;;
2474;SDS011;1248;48.694;10.160;2024-03-22T09:38:19;9.50;;;6.60;;
2474;SDS011;1248;48.694;10.160;2024-03-22T09:40:46;11.00;;;7.90;;
2474;SDS011;1248;48.694;10.160;2024-03-22T09:43:13;14.17;;;7.70;;
2474;SDS011;1248;48.694;10.160;2024-03-22T09:45:44;15.07;;;7.77;;
2474;SDS011;1248;48.694;10.160;2024-03-22T09:48:11;11.47;;;7.37;;
2474;SDS011;1248;48.694;10.160;2024-03-22T09:50:39;9.70;;;7.73;;
2474;SDS011;1248;48.694;10.160;2024-03-22T09:53:07;10.30;;;6.60;;
2474;SDS011;1248;48.694;10.160;2024-03-22T09:55:33;13.50;;;7.00;;
2474;SDS011;1248;48.694;10.160;2024-03-22T09:58:02;13.37;;;7.60;;
2474;SDS011;1248;48.694;10.160;2024-03-22T10:00:28;11.67;;;7.37;;
2474;SDS011;1248;48.694;10.160;2024-03-22T10:02:57;15.60;;;8.03;;
2474;SDS011;1248;48.694;10.160;2024-03-22T10:05:24;15.20;;;8.10;;
2474;SDS011;1248;48.694;10.160;2024-03-22T10:07:53;9.57;;;7.10;;
2474;SDS011;1248;48.694;10.160;2024-03-22T10:10:19;8.43;;;6.70;;
2474;SDS011;1248;48.694;10.160;2024-03-22T10:12:46;12.20;;;6.23;;
2474;SDS011;1248;48.694;10.160;2024-03-22T10:15:12;14.33;;;7.60;;
2474;SDS011;1248;48.694;10.160;2024-03-22T10:17:39;10.77;;;6.80;;
2474;SDS011;1248;48.694;10.160;2024-03-22T10:20:06;10.30;;;6.43;;
2474;SDS011;1248;48.694;10.160;2024-03-22T10:22:38;7.83;;;6.40;;
2474;SDS011;1248;48.694;10.160;2024-03-22T10:25:08;9.67;;;7.10;;
2474;SDS011;1248;48.694;10.160;2024-03-22T10:27:37;9.53;;;6.80;;
2474;SDS011;1248;48.694;10.160;2024-03-22T10:30:05;10.43;;;7.60;;
2474;SDS011;1248;48.694;10.160;2024-03-22T10:32:35;11.40;;;6.73;;
2474;SDS011;1248;48.694;10.160;2024-03-22T10:35:01;10.70;;;7.03;;
2474;SDS011;1248;48.694;10.160;2024-03-22T10:37:31;9.23;;;7.20;;
2474;SDS011;1248;48.694;10.160;2024-03-22T10:39:58;8.47;;;5.90;;
2474;SDS011;1248;48.694;10.160;2024-03-22T10:42:26;7.73;;;5.57;;
2474;SDS011;1248;48.694;10.160;2024-03-22T10:44:53;9.53;;;6.70;;
2474;SDS011;1248;48.694;10.160;2024-03-22T10:47:20;9.73;;;6.57;;
2474;SDS011;1248;48.694;10.160;2024-03-22T10:49:48;9.90;;;6.47;;
2474;SDS011;1248;48.694;10.160;2024-03-22T10:52:17;8.60;;;6.60;;
2474;SDS011;1248;48.694;10.160;2024-03-22T10:54:44;9.50;;;5.80;;
2474;SDS011;1248;48.694;10.160;2024-03-22T10:57:12;9.47;;;6.73;;
2474;SDS011;1248;48.694;10.160;2024-03-22T10:59:42;8.10;;;6.97;;
2474;SDS011;1248;48.694;10.160;2024-03-22T11:02:10;8.57;;;6.30;;
2474;SDS011;1248;48.694;10.160;2024-03-22T11:04:36;10.40;;;6.90;;
2474;SDS011;1248;48.694;10.160;2024-03-22T11:07:04;9.80;;;7.87;;
2474;SDS011;1248;48.694;10.160;2024-03-22T11:09:30;8.00;;;6.33;;
2474;SDS011;1248;48.694;10.160;2024-03-22T11:11:57;5.63;;;4.90;;
2474;SDS011;1248;48.694;10.160;2024-03-22T11:14:25;9.47;;;7.23;;
2474;SDS011;1248;48.694;10.160;2024-03-22T11:16:53;12.00;;;6.03;;
2474;SDS011;1248;48.694;10.160;2024-03-22T11:19:19;11.07;;;6.87;;
2474;SDS011;1248;48.694;10.160;2024-03-22T11:21:47;8.43;;;5.07;;
2474;SDS011;1248;48.694;10.160;2024-03-22T11:24:13;6.27;;;5.33;;
2474;SDS011;1248;48.694;10.160;2024-03-22T11:26:40;6.83;;;4.90;;
2474;SDS011;1248;48.694;10.160;2024-03-22T11:29:07;8.80;;;4.77;;
2474;SDS011;1248;48.694;10.160;2024-03-22T11:31:34;7.67;;;4.90;;
2474;SDS011;1248;48.694;10.160;2024-03-22T11:34:02;6.73;;;5.50;;
2474;SDS011;1248;48.694;10.160;2024-03-22T11:36:29;7.83;;;5.33;;
2474;SDS011;1248;48.694;10.160;2024-03-22T11:38:55;6.53;;;5.20;;
2474;SDS011;1248;48.694;10.160;2024-03-22T11:41:24;7.80;;;4.80;;
2474;SDS011;1248;48.694;10.160;2024-03-22T11:43:52;7.27;;;4.77;;
2474;SDS011;1248;48.694;10.160;2024-03-22T11:46:19;6.20;;;5.00;;
2474;SDS011;1248;48.694;10.160;2024-03-22T11:48:50;7.07;;;5.20;;
2474;SDS011;1248;48.694;10.160;2024-03-22T11:51:19;5.67;;;4.37;;
2474;SDS011;1248;48.694;10.160;2024-03-22T11:53:49;10.83;;;5.40;;
2474;SDS011;1248;48.694;10.160;2024-03-22T11:56:19;11.00;;;5.40;;
2474;SDS011;1248;48.694;10.160;2024-03-22T11:58:46;8.50;;;5.50;;
2474;SDS011;1248;48.694;10.160;2024-03-22T12:01:14;8.70;;;5.67;;
2474;SDS011;1248;48.694;10.160;2024-03-22T12:03:43;9.73;;;5.20;;
2474;SDS011;1248;48.694;10.160;2024-03-22T12:06:10;7.10;;;4.97;;
2474;SDS011;1248;48.694;10.160;2024-03-22T12:08:38;7.63;;;5.13;;
2474;SDS011;1248;48.694;10.160;2024-03-22T12:11:06;7.90;;;6.00;;
2474;SDS011;1248;48.694;10.160;2024-03-22T12:13:33;7.73;;;5.90;;
2474;SDS011;1248;48.694;10.160;2024-03-22T12:16:00;10.13;;;5.50;;
2474;SDS011;1248;48.694;10.160;2024-03-22T12:18:27;8.33;;;5.60;;
2474;SDS011;1248;48.694;10.160;2024-03-22T12:20:54;8.10;;;5.10;;
2474;SDS011;1248;48.694;10.160;2024-03-22T12:23:20;6.17;;;5.00;;
2474;SDS011;1248;48.694;10.160;2024-03-22T12:25:48;6.37;;;4.43;;
2474;SDS011;1248;48.694;10.160;2024-03-22T12:28:15;7.90;;;4.33;;
2474;SDS011;1248;48.694;10.160;2024-03-22T12:30:42;9.63;;;4.30;;
2474;SDS011;1248;48.694;10.160;2024-03-22T12:33:08;4.57;;;3.00;;
2474;SDS011;1248;48.694;10.160;2024-03-22T12:35:36;4.87;;;3.70;;
2474;SDS011;1248;48.694;10.160;2024-03-22T12:38:02;4.60;;;3.67;;
2474;SDS011;1248;48.694;10.160;2024-03-22T12:40:29;5.50;;;3.53;;
2474;SDS011;1248;48.694;10.160;2024-03-22T12:42:57;6.43;;;4.00;;
2474;SDS011;1248;48.694;10.160;2024-03-22T12:45:24;11.30;;;3.70;;
2474;SDS011;1248;48.694;10.160;2024-03-22T12:47:50;6.40;;;4.10;;
2474;SDS011;1248;48.694;10.160;2024-03-22T12:50:17;4.93;;;3.70;;
2474;SDS011;1248;48.694;10.160;2024-03-22T12:52:43;7.33;;;4.53;;
2474;SDS011;1248;48.694;10.160;2024-03-22T12:55:10;6.07;;;4.30;;
2474;SDS011;1248;48.694;10.160;2024-03-22T12:57:36;10.07;;;3.60;;
2474;SDS011;1248;48.694;10.160;2024-03-22T13:00:06;5.77;;;3.93;;
2474;SDS011;1248;48.694;10.160;2024-03-22T13:02:38;6.60;;;3.93;;
2474;SDS011;1248;48.694;10.160;2024-03-22T13:05:06;11.03;;;5.53;;
2474;SDS011;1248;48.694;10.160;2024-03-22T13:07:33;5.87;;;3.50;;
2474;SDS011;1248;48.694;10.160;2024-03-22T13:10:00;5.80;;;4.10;;
2474;SDS011;1248;48.694;10.160;2024-03-22T13:12:26;4.13;;;3.30;;
2474;SDS011;1248;48.694;10.160;2024-03-22T13:14:54;4.53;;;3.87;;
2474;SDS011;1248;48.694;10.160;2024-03-22T13:17:21;6.50;;;3.93;;
2474;SDS011;1248;48.694;10.160;2024-03-22T13:19:49;8.13;;;4.10;;
2474;SDS011;1248;48.694;10.160;2024-03-22T13:22:15;5.63;;;3.57;;
2474;SDS011;1248;48.694;10.160;2024-03-22T13:24:44;5.40;;;3.60;;
2474;SDS011;1248;48.694;10.160;2024-03-22T13:27:10;5.00;;;4.07;;
2474;SDS011;1248;48.694;10.160;2024-03-22T13:29:38;7.70;;;3.83;;
2474;SDS011;1248;48.694;10.160;2024-03-22T13:32:04;4.50;;;2.70;;
2474;SDS011;1248;48.694;10.160;2024-03-22T13:34:34;9.33;;;3.77;;
2474;SDS011;1248;48.694;10.160;2024-03-22T13:37:01;6.03;;;3.90;;
2474;SDS011;1248;48.694;10.160;2024-03-22T13:39:28;13.43;;;3.97;;
2474;SDS011;1248;48.694;10.160;2024-03-22T13:41:55;4.67;;;3.43;;
2474;SDS011;1248;48.694;10.160;2024-03-22T13:44:22;4.17;;;3.73;;
2474;SDS011;1248;48.694;10.160;2024-03-22T13:46:48;7.80;;;3.50;;
2474;SDS011;1248;48.694;10.160;2024-03-22T13:49:16;10.30;;;3.97;;
2474;SDS011;1248;48.694;10.160;2024-03-22T13:51:44;5.27;;;3.73;;
2474;SDS011;1248;48.694;10.160;2024-03-22T13:54:11;7.43;;;4.40;;
2474;SDS011;1248;48.694;10.160;2024-03-22T13:56:37;8.00;;;4.00;;
2474;SDS011;1248;48.694;10.160;2024-03-22T13:59:05;9.80;;;3.80;;
2474;SDS011;1248;48.694;10.160;2024-03-22T14:01:31;7.83;;;4.23;;
2474;SDS011;1248;48.694;10.160;2024-03-22T14:03:58;5.93;;;3.90;;
2474;SDS011;1248;48.694;10.160;2024-03-22T14:06:24;6.50;;;3.87;;
2474;SDS011;1248;48.694;10.160;2024-03-22T14:08:53;6.10;;;3.73;;
2474;SDS011;1248;48.694;10.160;2024-03-22T14:11:25;6.43;;;3.93;;
2474;SDS011;1248;48.694;10.160;2024-03-22T14:13:53;7.97;;;4.00;;
2474;SDS011;1248;48.694;10.160;2024-03-22T14:16:19;6.33;;;4.53;;
2474;SDS011;1248;48.694;10.160;2024-03-22T14:18:46;8.50;;;4.10;;
2474;SDS011;1248;48.694;10.160;2024-03-22T14:21:13;4.70;;;3.70;;
2474;SDS011;1248;48.694;10.160;2024-03-22T14:23:44;7.40;;;4.67;;
2474;SDS011;1248;48.694;10.160;2024-03-22T14:26:13;7.23;;;4.00;;
2474;SDS011;1248;48.694;10.160;2024-03-22T14:28:40;5.97;;;3.70;;
2474;SDS011;1248;48.694;10.160;2024-03-22T14:31:06;10.17;;;5.07;;
2474;SDS011;1248;48.694;10.160;2024-03-22T14:33:34;5.63;;;3.60;;
2474;SDS011;1248;48.694;10.160;2024-03-22T14:36:00;5.33;;;4.20;;
2474;SDS011;1248;48.694;10.160;2024-03-22T14:38:28;7.60;;;4.30;;
2474;SDS011;1248;48.694;10.160;2024-03-22T14:40:54;6.73;;;4.60;;
2474;SDS011;1248;48.694;10.160;2024-03-22T14:43:22;5.47;;;3.60;;
2474;SDS011;1248;48.694;10.160;2024-03-22T14:45:49;6.73;;;4.10;;
2474;SDS011;1248;48.694;10.160;2024-03-22T14:48:17;6.23;;;4.50;;
2474;SDS011;1248;48.694;10.160;2024-03-22T14:50:43;5.40;;;3.77;;